No requiere especial atencion con respecto al clima.   -   No hay Alarmas

Nearby METAR Reports

 

LELL - Sabadell, Spain
Distance from station: ONO 14km
Actualización: 10/12/2018 10:00
Despejado
Despejado
 Viento del O
Viento: O 9 km/h
Temperatura: 9°C
Temp.Sensacion: 7°C
Rocío: 7°C
Humedad: 87%
Barómetro: 1029 hPa
Resumen: Despejado
Visibilidad: greater than 10 km
2018/12/10 09:00 LELL 100900Z 27005KT CAVOK 09/07 Q1029
LEBL - Barcelona Airpor, Spain
Distance from station: SO 25km
Actualización: 10/12/2018 10:00
Despejado
Despejado
 Viento del NO
Viento: NO 20 km/h
Temperatura: 11°C
Rocío: 5°C
Humedad: 67%
Barómetro: 1029 hPa
Resumen: Despejado
Visibilidad: greater than 10 km
2018/12/10 09:00 LEBL 100900Z 32011KT CAVOK 11/05 Q1029 NOSIG
 
LEGE - Gerona/Costa Bra, Spain
Distance from station: NE 65km
Actualización: 10/12/2018 10:00
Few Clouds
Few Clouds
 Viento del calm
Viento: Calma
Temperatura: 6°C
Rocío: 6°C
Humedad: 100%
Barómetro: 1029 hPa
Clouds: Few Clouds
Visibilidad: 10 km
Cloud details: Few Clouds 61 m
2018/12/10 09:00 LEGE 100900Z 00000KT 9999 FEW002 06/06 Q1029
LERS - Reus (civ/Mil), Spain
Distance from station: OSO 96km
Actualización: 10/12/2018 10:00
Despejado
Despejado
 Viento del varies
Viento: varies 4 km/h
Temperatura: 13°C
Rocío: 5°C
Humedad: 59%
Barómetro: 1029 hPa
Resumen: Despejado
Visibilidad: greater than 10 km
2018/12/10 09:00 LERS 100900Z VRB02KT CAVOK 13/05 Q1029